Time;durP1;ratioP1;P1;durP2;ratioP2;P2;SDS_P1;SDS_P2;PMS_P1;PMS_P2;Temp;Humidity;BMP_temperature;BMP_pressure;BME280_temperature;BME280_humidity;BME280_pressure;Samples;Min_cycle;Max_cycle;Signal;HPM_P1;HPM_P2
2023/08/30 00:00:10;;;;;;;4.78;2.90;;;14.90;99.90;;;;;;5041585;28;20081;-72
2023/08/30 00:02:36;;;;;;;4.68;2.78;;;14.90;99.90;;;;;;5025518;28;20041;-70
2023/08/30 00:05:03;;;;;;;4.15;2.50;;;14.90;99.90;;;;;;5042166;28;20487;-70
2023/08/30 00:07:29;;;;;;;4.03;2.55;;;14.90;99.90;;;;;;5024705;28;20042;-71
2023/08/30 00:09:56;;;;;;;4.20;2.53;;;14.80;99.90;;;;;;5022927;28;20047;-70
2023/08/30 00:12:22;;;;;;;5.68;2.83;;;14.80;99.90;;;;;;5020829;28;20087;-71
2023/08/30 00:14:48;;;;;;;4.70;2.22;;;14.80;99.90;;;;;;5024378;28;20038;-70
2023/08/30 00:17:14;;;;;;;4.35;2.80;;;14.80;99.90;;;;;;5042470;28;20044;-70
2023/08/30 00:19:40;;;;;;;6.47;2.97;;;14.70;99.90;;;;;;5041535;28;20072;-71
2023/08/30 00:22:08;;;;;;;5.70;2.85;;;14.70;99.90;;;;;;5042287;28;20498;-70
2023/08/30 00:24:35;;;;;;;4.80;2.80;;;14.60;99.90;;;;;;5040730;28;20045;-70
2023/08/30 00:27:01;;;;;;;4.97;2.90;;;14.60;99.90;;;;;;5041424;28;20041;-70
2023/08/30 00:29:30;;;;;;;5.20;3.17;;;14.50;99.90;;;;;;5041181;28;20500;-70
2023/08/30 00:31:56;;;;;;;4.35;2.72;;;14.50;99.90;;;;;;5040824;28;20033;-70
2023/08/30 00:34:21;;;;;;;7.97;2.90;;;14.40;99.90;;;;;;5042103;28;20067;-70
2023/08/30 00:36:47;;;;;;;3.53;2.50;;;14.40;99.90;;;;;;5041193;28;20064;-69
2023/08/30 00:39:13;;;;;;;4.90;2.90;;;14.40;99.90;;;;;;5022734;28;20512;-71
2023/08/30 00:41:39;;;;;;;6.85;3.15;;;14.30;99.90;;;;;;5043256;28;20136;-70
2023/08/30 00:44:04;;;;;;;5.03;2.75;;;14.30;99.90;;;;;;5028515;28;20325;-70
2023/08/30 00:46:31;;;;;;;5.55;3.33;;;14.30;99.90;;;;;;5044018;28;20049;-71
2023/08/30 00:48:59;;;;;;;4.53;2.55;;;14.20;99.90;;;;;;5046404;28;20048;-70
2023/08/30 00:51:25;;;;;;;4.50;2.47;;;14.20;99.90;;;;;;5027398;28;20037;-70
2023/08/30 00:53:50;;;;;;;5.30;3.08;;;14.20;99.90;;;;;;5027671;28;20045;-70
2023/08/30 00:56:18;;;;;;;3.80;2.25;;;14.20;99.90;;;;;;5044493;28;20112;-70
2023/08/30 00:58:44;;;;;;;3.35;2.45;;;14.20;99.90;;;;;;5043785;28;20111;-70
2023/08/30 01:01:10;;;;;;;3.35;2.38;;;14.10;99.90;;;;;;5045243;28;20041;-71
2023/08/30 01:03:37;;;;;;;3.92;2.60;;;14.10;99.90;;;;;;5045096;28;20053;-70
2023/08/30 01:06:03;;;;;;;4.40;2.90;;;14.00;99.90;;;;;;5158506;22;20075;-71
2023/08/30 01:08:29;;;;;;;3.97;2.60;;;14.00;99.90;;;;;;5057924;28;20075;-70
2023/08/30 01:11:11;;;;;;;6.55;2.72;;;14.00;99.90;;;;;;5060717;28;20051;-70
2023/08/30 01:13:51;;;;;;;4.75;2.85;;;13.90;99.90;;;;;;5066052;28;20052;-71
2023/08/30 01:16:20;;;;;;;5.00;2.60;;;13.90;99.90;;;;;;5045250;28;20049;-70
2023/08/30 01:18:46;;;;;;;5.38;3.67;;;13.80;99.90;;;;;;5054579;28;20044;-70
2023/08/30 01:21:20;;;;;;;5.50;3.03;;;13.80;99.90;;;;;;5066467;28;20078;-71
2023/08/30 01:23:54;;;;;;;3.92;2.75;;;13.90;99.90;;;;;;5065927;28;20046;-71
2023/08/30 01:26:44;;;;;;;6.95;3.60;;;13.80;99.90;;;;;;5066209;28;20036;-71
2023/08/30 01:29:12;;;;;;;5.32;2.80;;;13.80;99.90;;;;;;5066596;28;20055;-70
2023/08/30 01:31:40;;;;;;;6.95;3.92;;;13.80;99.90;;;;;;5066178;28;20459;-71
2023/08/30 01:34:06;;;;;;;5.60;3.60;;;13.70;99.90;;;;;;5067179;28;20045;-70
2023/08/30 01:36:32;;;;;;;4.88;3.28;;;13.80;99.90;;;;;;5065876;28;20045;-70
2023/08/30 01:38:59;;;;;;;6.32;3.58;;;13.70;99.90;;;;;;5065272;28;20051;-70
2023/08/30 01:41:26;;;;;;;3.88;3.17;;;13.70;99.90;;;;;;5066338;28;20052;-70
2023/08/30 01:43:53;;;;;;;7.20;3.75;;;13.70;99.90;;;;;;5064406;28;20052;-70
2023/08/30 01:46:20;;;;;;;4.10;2.78;;;13.70;99.90;;;;;;5065676;28;20135;-71
2023/08/30 01:48:47;;;;;;;5.20;3.38;;;13.70;99.90;;;;;;5065031;28;20064;-70
2023/08/30 01:51:15;;;;;;;5.25;3.03;;;13.60;99.90;;;;;;5065635;28;20056;-70
2023/08/30 01:53:43;;;;;;;5.72;3.58;;;13.60;99.90;;;;;;5063494;28;20051;-70
2023/08/30 01:56:09;;;;;;;5.88;3.30;;;13.50;99.90;;;;;;5065742;28;20076;-71
2023/08/30 01:58:34;;;;;;;4.95;3.38;;;13.50;99.90;;;;;;5064808;28;20075;-70
2023/08/30 02:01:00;;;;;;;6.03;3.17;;;13.50;99.90;;;;;;5065905;28;20091;-71
2023/08/30 02:03:26;;;;;;;6.53;3.25;;;13.50;99.90;;;;;;5065611;28;20040;-70
2023/08/30 02:06:11;;;;;;;5.47;3.60;;;13.50;99.90;;;;;;5064594;28;20032;-70
2023/08/30 02:09:26;;;;;;;6.43;3.65;;;13.40;99.90;;;;;;5059838;28;20036;-71
2023/08/30 02:11:53;;;;;;;5.13;3.25;;;13.50;99.90;;;;;;5042921;28;20056;-70
2023/08/30 02:14:20;;;;;;;7.38;4.07;;;13.40;99.90;;;;;;5063642;28;20554;-69
2023/08/30 02:16:47;;;;;;;5.78;3.53;;;13.40;99.90;;;;;;5065451;28;20041;-71
2023/08/30 02:19:22;;;;;;;6.30;3.45;;;13.40;99.90;;;;;;5065468;28;20078;-71
2023/08/30 02:21:48;;;;;;;5.85;4.00;;;13.40;99.90;;;;;;5065408;28;20600;-70
2023/08/30 02:24:14;;;;;;;6.63;4.43;;;13.40;99.90;;;;;;5064458;28;20045;-70
2023/08/30 02:26:40;;;;;;;6.00;3.17;;;13.40;99.90;;;;;;5065060;28;20036;-70
2023/08/30 02:29:05;;;;;;;6.10;4.00;;;13.40;99.90;;;;;;5065812;28;20090;-71
2023/08/30 02:31:31;;;;;;;11.23;4.47;;;13.30;99.90;;;;;;5064919;28;20044;-69
2023/08/30 02:33:57;;;;;;;7.57;3.80;;;13.30;99.90;;;;;;5064934;28;20041;-70
2023/08/30 02:36:23;;;;;;;8.45;3.75;;;13.30;99.90;;;;;;5065207;28;20127;-70
2023/08/30 02:38:48;;;;;;;9.13;4.68;;;13.30;99.90;;;;;;5064440;28;20170;-70
2023/08/30 02:41:14;;;;;;;5.32;3.80;;;13.40;99.90;;;;;;5064745;28;20098;-70
2023/08/30 02:43:39;;;;;;;5.82;3.88;;;13.40;99.90;;;;;;5063559;28;20040;-70
2023/08/30 02:46:05;;;;;;;6.03;3.72;;;13.40;99.90;;;;;;5063779;28;20538;-70
2023/08/30 02:48:32;;;;;;;5.07;4.28;;;13.40;99.90;;;;;;5064914;28;20044;-69
2023/08/30 02:50:57;;;;;;;6.68;4.43;;;13.40;99.90;;;;;;5064611;28;20094;-70
2023/08/30 02:53:23;;;;;;;6.97;3.90;;;13.50;99.90;;;;;;5062611;28;20486;-70
2023/08/30 02:55:49;;;;;;;15.55;4.72;;;13.40;99.90;;;;;;5064746;28;20039;-70
2023/08/30 02:58:14;;;;;;;4.43;3.78;;;13.40;99.90;;;;;;5064577;28;20453;-71
2023/08/30 03:00:40;;;;;;;7.03;4.18;;;13.50;99.90;;;;;;5064331;28;20371;-70
2023/08/30 03:03:06;;;;;;;7.88;4.20;;;13.50;99.90;;;;;;5064743;28;20116;-70
2023/08/30 03:05:31;;;;;;;9.00;4.60;;;13.50;99.90;;;;;;5063469;28;20490;-70
2023/08/30 03:07:57;;;;;;;8.07;4.35;;;13.50;99.90;;;;;;5062194;28;20316;-70
2023/08/30 03:10:23;;;;;;;6.65;4.13;;;13.50;99.90;;;;;;5045453;28;20041;-70
2023/08/30 03:12:48;;;;;;;8.25;4.25;;;13.60;99.90;;;;;;5062610;28;20033;-70
2023/08/30 03:15:14;;;;;;;8.02;4.60;;;13.70;99.90;;;;;;5062985;28;20066;-71
2023/08/30 03:17:39;;;;;;;6.22;4.10;;;13.70;99.90;;;;;;5062823;28;20106;-70
2023/08/30 03:20:06;;;;;;;6.45;3.95;;;13.70;99.90;;;;;;5064141;28;20051;-70
2023/08/30 03:22:32;;;;;;;8.77;4.82;;;13.70;99.90;;;;;;5060852;28;20074;-71
2023/08/30 03:24:58;;;;;;;8.05;4.07;;;13.70;99.90;;;;;;5063571;28;20139;-70
2023/08/30 03:27:24;;;;;;;8.48;4.65;;;13.80;99.90;;;;;;5061817;28;20107;-70
2023/08/30 03:29:49;;;;;;;11.13;5.07;;;13.80;99.90;;;;;;5063579;28;20123;-70
2023/08/30 03:32:17;;;;;;;10.88;5.22;;;13.80;99.90;;;;;;5062874;28;20052;-70
2023/08/30 03:34:47;;;;;;;9.50;5.25;;;13.80;99.90;;;;;;5063215;28;20052;-71
2023/08/30 03:37:16;;;;;;;9.50;4.78;;;13.80;99.90;;;;;;5062349;28;20036;-71
2023/08/30 03:39:42;;;;;;;9.25;4.68;;;13.90;99.90;;;;;;5062008;28;20064;-70
2023/08/30 03:42:07;;;;;;;8.45;5.03;;;13.80;99.90;;;;;;5062991;28;20037;-72
2023/08/30 03:44:33;;;;;;;8.20;5.10;;;13.90;99.90;;;;;;5062930;28;20048;-70
2023/08/30 03:46:59;;;;;;;6.85;4.40;;;13.90;99.90;;;;;;5062009;28;20761;-70
2023/08/30 03:49:24;;;;;;;9.82;5.78;;;13.90;99.90;;;;;;5062559;28;20080;-70
2023/08/30 03:51:50;;;;;;;10.50;4.82;;;13.90;99.90;;;;;;5061523;28;20163;-72
2023/08/30 03:54:18;;;;;;;7.93;4.78;;;13.90;99.90;;;;;;5062584;28;20086;-70
2023/08/30 03:56:44;;;;;;;7.63;4.63;;;13.90;99.90;;;;;;5063143;28;20093;-70
2023/08/30 03:59:11;;;;;;;9.48;4.40;;;14.00;99.90;;;;;;5062802;28;20594;-71
2023/08/30 04:01:37;;;;;;;11.20;5.40;;;13.90;99.90;;;;;;5063032;28;20044;-70
2023/08/30 04:04:03;;;;;;;9.38;5.40;;;14.00;99.90;;;;;;5024956;28;1092949;-71
2023/08/30 04:06:28;;;;;;;13.30;5.07;;;14.00;99.90;;;;;;5063570;28;20477;-71
2023/08/30 04:08:54;;;;;;;11.07;5.93;;;14.00;99.90;;;;;;5062972;28;20037;-70
2023/08/30 04:11:20;;;;;;;7.30;5.10;;;14.00;99.90;;;;;;5063731;28;20044;-70
2023/08/30 04:13:45;;;;;;;15.18;5.88;;;14.00;99.90;;;;;;5063668;28;20037;-70
2023/08/30 04:16:11;;;;;;;11.80;5.82;;;14.00;99.90;;;;;;5062066;28;20055;-70
2023/08/30 04:18:37;;;;;;;10.75;6.35;;;14.00;99.90;;;;;;5064028;28;20380;-70
2023/08/30 04:21:02;;;;;;;12.10;5.85;;;14.00;99.90;;;;;;5066017;28;20045;-70
2023/08/30 04:23:29;;;;;;;9.77;5.28;;;14.00;99.90;;;;;;5066343;28;20928;-70
2023/08/30 04:25:55;;;;;;;11.00;5.55;;;14.00;99.90;;;;;;5067840;28;20047;-71
2023/08/30 04:28:21;;;;;;;13.00;5.90;;;14.00;99.90;;;;;;5067313;28;20485;-71
2023/08/30 04:30:46;;;;;;;10.07;5.85;;;14.00;99.90;;;;;;5066966;28;20765;-70
2023/08/30 04:33:12;;;;;;;13.32;5.35;;;14.00;99.90;;;;;;5067321;28;20101;-70
2023/08/30 04:35:38;;;;;;;9.98;5.82;;;13.90;99.90;;;;;;5067415;28;20453;-72
2023/08/30 04:38:04;;;;;;;9.70;5.28;;;14.00;99.90;;;;;;5066694;28;20422;-71
2023/08/30 04:40:32;;;;;;;8.13;4.63;;;14.00;99.90;;;;;;5066203;28;20043;-70
2023/08/30 04:42:58;;;;;;;13.25;7.22;;;14.00;99.90;;;;;;5065731;28;20040;-70
2023/08/30 04:45:24;;;;;;;7.18;4.70;;;14.00;99.90;;;;;;5049184;28;20502;-71
2023/08/30 04:47:50;;;;;;;8.90;5.43;;;14.00;99.90;;;;;;5067281;28;20079;-70
2023/08/30 04:50:16;;;;;;;9.13;5.40;;;14.00;99.90;;;;;;5066638;28;20111;-71
2023/08/30 04:52:42;;;;;;;11.50;5.40;;;13.90;99.90;;;;;;5064847;28;20060;-70
2023/08/30 04:55:08;;;;;;;7.95;5.25;;;13.90;99.90;;;;;;5067071;28;20510;-72
2023/08/30 04:57:34;;;;;;;11.00;5.90;;;14.00;99.90;;;;;;5066293;28;20516;-70
2023/08/30 05:00:04;;;;;;;10.15;5.30;;;14.00;99.90;;;;;;5067503;28;20078;-70
2023/08/30 05:02:29;;;;;;;11.95;5.20;;;14.00;99.90;;;;;;5065540;28;20056;-70
2023/08/30 05:04:55;;;;;;;11.30;5.13;;;14.00;99.90;;;;;;5066483;28;20091;-71
2023/08/30 05:07:20;;;;;;;12.00;6.32;;;13.90;99.90;;;;;;5064194;28;20521;-70
2023/08/30 05:09:46;;;;;;;7.78;5.07;;;13.90;99.90;;;;;;5066731;28;20490;-70
2023/08/30 05:12:12;;;;;;;10.02;4.68;;;14.00;99.90;;;;;;5066218;28;20037;-71
2023/08/30 05:14:37;;;;;;;10.63;5.82;;;13.90;99.90;;;;;;5063512;28;20391;-74
2023/08/30 05:17:03;;;;;;;10.30;5.85;;;14.00;99.90;;;;;;5066543;28;20044;-73
2023/08/30 05:19:29;;;;;;;11.52;6.28;;;14.00;99.90;;;;;;5064396;28;20044;-73
2023/08/30 05:21:55;;;;;;;8.40;5.22;;;14.00;99.90;;;;;;5063843;28;20052;-73
2023/08/30 05:24:21;;;;;;;11.23;6.25;;;14.00;99.90;;;;;;5064096;28;20040;-72
2023/08/30 05:26:48;;;;;;;9.57;5.55;;;13.90;99.90;;;;;;5064682;28;20063;-72
2023/08/30 05:29:15;;;;;;;11.18;5.28;;;13.90;99.90;;;;;;5045733;28;20102;-73
2023/08/30 05:31:41;;;;;;;8.60;5.55;;;13.90;99.90;;;;;;5064576;28;20149;-72
2023/08/30 05:34:07;;;;;;;9.80;5.32;;;13.90;99.90;;;;;;5066592;28;20048;-73
2023/08/30 05:36:32;;;;;;;9.07;4.93;;;13.90;99.90;;;;;;5066132;28;20121;-72
2023/08/30 05:38:58;;;;;;;10.70;6.07;;;13.90;99.90;;;;;;5047961;28;20044;-71
2023/08/30 05:41:24;;;;;;;11.70;6.78;;;13.90;99.90;;;;;;5064657;28;20087;-71
2023/08/30 05:43:50;;;;;;;12.55;6.28;;;13.90;99.90;;;;;;5064905;28;20530;-71
2023/08/30 05:46:16;;;;;;;11.05;5.45;;;14.00;99.90;;;;;;5060531;28;20048;-72
2023/08/30 05:48:42;;;;;;;17.05;6.00;;;13.90;99.90;;;;;;5062655;28;20040;-72
2023/08/30 05:51:07;;;;;;;9.35;5.22;;;14.00;99.90;;;;;;5059254;28;20056;-73
2023/08/30 05:53:33;;;;;;;10.43;6.07;;;14.00;99.90;;;;;;5064921;28;20660;-72
2023/08/30 05:55:59;;;;;;;9.32;6.45;;;13.90;99.90;;;;;;5062270;28;20036;-72
2023/08/30 05:58:24;;;;;;;10.88;5.32;;;13.90;99.90;;;;;;5058355;28;20455;-71
2023/08/30 06:00:50;;;;;;;11.55;6.00;;;13.90;99.90;;;;;;5065696;28;20032;-72
2023/08/30 06:03:15;;;;;;;9.65;5.40;;;13.90;99.90;;;;;;5063707;28;20140;-72
2023/08/30 06:05:44;;;;;;;10.77;5.10;;;13.90;99.90;;;;;;5057276;28;20525;-73
2023/08/30 06:08:09;;;;;;;9.85;5.90;;;13.90;99.90;;;;;;5062825;28;20078;-73
2023/08/30 06:10:36;;;;;;;8.23;5.15;;;14.00;99.90;;;;;;5064706;28;20037;-73
2023/08/30 06:13:02;;;;;;;10.35;6.53;;;13.90;99.90;;;;;;5062152;28;20025;-73
2023/08/30 06:15:28;;;;;;;9.65;5.10;;;13.90;99.90;;;;;;5063753;28;20056;-73
2023/08/30 06:17:54;;;;;;;10.43;6.03;;;13.90;99.90;;;;;;5063449;28;20040;-73
2023/08/30 06:20:19;;;;;;;10.13;6.13;;;14.00;99.90;;;;;;5063632;28;20048;-76
2023/08/30 06:22:45;;;;;;;12.40;5.65;;;13.90;99.90;;;;;;5034974;28;20044;-73
2023/08/30 06:25:11;;;;;;;11.70;6.03;;;14.00;99.90;;;;;;5061017;28;20534;-74
2023/08/30 06:27:45;;;;;;;10.80;5.75;;;14.00;99.90;;;;;;5063120;28;20490;-71
2023/08/30 06:30:11;;;;;;;10.50;5.75;;;14.00;99.90;;;;;;5063379;28;20538;-72
2023/08/30 06:32:37;;;;;;;12.93;5.80;;;14.00;99.90;;;;;;5062813;28;20127;-71
2023/08/30 06:35:03;;;;;;;10.68;5.45;;;14.10;99.90;;;;;;5064129;28;20124;-71
2023/08/30 06:37:29;;;;;;;14.75;6.00;;;14.10;99.90;;;;;;5061271;28;20041;-71
2023/08/30 06:39:55;;;;;;;11.40;6.20;;;14.20;99.90;;;;;;5062121;28;20085;-71
2023/08/30 06:42:20;;;;;;;13.32;6.20;;;14.20;99.90;;;;;;5063643;28;20196;-71
2023/08/30 06:44:46;;;;;;;9.50;5.65;;;14.30;99.90;;;;;;5063258;28;20167;-71
2023/08/30 06:47:12;;;;;;;11.95;5.57;;;14.40;99.90;;;;;;5045292;28;20041;-71
2023/08/30 06:49:37;;;;;;;10.55;5.30;;;14.50;99.90;;;;;;5063472;28;20040;-73
2023/08/30 06:52:04;;;;;;;11.45;5.60;;;14.60;99.90;;;;;;5061506;28;20121;-71
2023/08/30 06:54:34;;;;;;;11.07;5.20;;;14.70;99.90;;;;;;5061546;28;20479;-71
2023/08/30 06:57:00;;;;;;;10.95;6.35;;;14.70;99.90;;;;;;5063744;28;20040;-71
2023/08/30 06:59:27;;;;;;;9.55;4.72;;;14.80;99.90;;;;;;5062312;28;20451;-72
2023/08/30 07:01:52;;;;;;;10.10;5.65;;;14.90;99.90;;;;;;5063807;28;20033;-71
2023/08/30 07:04:18;;;;;;;9.32;5.00;;;15.00;99.90;;;;;;5062834;28;20228;-71
2023/08/30 07:06:44;;;;;;;12.07;5.93;;;15.10;99.90;;;;;;5061867;28;20056;-71
2023/08/30 07:09:11;;;;;;;10.02;5.82;;;15.20;99.90;;;;;;5063064;28;20044;-71
2023/08/30 07:11:37;;;;;;;10.00;5.53;;;15.20;99.90;;;;;;5062159;28;20041;-71
2023/08/30 07:14:03;;;;;;;12.48;5.75;;;15.20;99.90;;;;;;5062283;28;20131;-71
2023/08/30 07:16:31;;;;;;;11.13;5.45;;;15.20;99.90;;;;;;5061438;28;20048;-71
2023/08/30 07:18:57;;;;;;;9.00;5.13;;;15.20;99.90;;;;;;5061276;28;20138;-71
2023/08/30 07:21:23;;;;;;;11.00;5.05;;;15.10;99.90;;;;;;5060051;28;20071;-71
2023/08/30 07:23:48;;;;;;;11.82;5.50;;;15.20;99.90;;;;;;5061659;28;20102;-71
2023/08/30 07:26:14;;;;;;;8.45;5.18;;;15.10;99.90;;;;;;5063108;28;20130;-71
2023/08/30 07:28:39;;;;;;;11.48;5.97;;;15.10;99.90;;;;;;5062910;28;20406;-72
2023/08/30 07:31:05;;;;;;;9.35;4.85;;;15.20;99.90;;;;;;5063056;28;20042;-71
2023/08/30 07:33:31;;;;;;;10.45;4.82;;;15.20;99.90;;;;;;5039955;28;20156;-71
2023/08/30 07:35:57;;;;;;;10.25;4.95;;;15.20;99.90;;;;;;5061473;28;20044;-71
2023/08/30 07:38:23;;;;;;;9.95;4.90;;;15.20;99.90;;;;;;5061887;28;20520;-71
2023/08/30 07:40:48;;;;;;;12.48;5.57;;;15.20;99.90;;;;;;5061164;28;20036;-72
2023/08/30 07:43:14;;;;;;;10.57;5.00;;;15.20;99.90;;;;;;5060919;28;20601;-72
2023/08/30 07:45:39;;;;;;;10.35;4.82;;;15.30;99.90;;;;;;5061870;28;20387;-71
2023/08/30 07:48:05;;;;;;;11.75;5.50;;;15.30;99.90;;;;;;5061819;28;20044;-71
2023/08/30 07:50:31;;;;;;;9.88;5.18;;;15.30;99.90;;;;;;5062257;28;20046;-71
2023/08/30 07:52:56;;;;;;;10.50;5.18;;;15.40;99.90;;;;;;5062024;28;20040;-71
2023/08/30 07:55:22;;;;;;;9.60;5.07;;;15.50;99.90;;;;;;5060458;28;20048;-71
2023/08/30 07:57:48;;;;;;;10.48;4.97;;;15.50;99.90;;;;;;5063096;28;20036;-71
2023/08/30 08:00:14;;;;;;;10.07;4.55;;;15.50;99.90;;;;;;5062392;28;20076;-71
2023/08/30 08:02:40;;;;;;;11.15;4.60;;;15.50;99.90;;;;;;5062614;28;20094;-71
2023/08/30 08:05:06;;;;;;;10.85;6.03;;;15.60;99.90;;;;;;5062596;28;20060;-71
2023/08/30 08:07:32;;;;;;;14.63;6.43;;;15.60;99.90;;;;;;5032165;28;20102;-71
2023/08/30 08:09:58;;;;;;;9.75;4.78;;;15.60;99.90;;;;;;5053183;28;20300;-71
2023/08/30 08:12:23;;;;;;;13.20;4.65;;;15.70;99.90;;;;;;5062167;28;20518;-71
2023/08/30 08:14:49;;;;;;;10.40;4.93;;;15.70;99.90;;;;;;5061844;28;20036;-71
2023/08/30 08:17:15;;;;;;;11.15;5.47;;;15.80;99.90;;;;;;5062231;28;20587;-71
2023/08/30 08:19:42;;;;;;;8.32;4.95;;;15.80;99.90;;;;;;5059780;28;20052;-73
2023/08/30 08:22:08;;;;;;;10.00;4.65;;;15.90;99.90;;;;;;5059444;28;20076;-74
2023/08/30 08:24:34;;;;;;;7.70;4.15;;;15.90;99.90;;;;;;5061954;28;20095;-73
2023/08/30 08:27:01;;;;;;;8.85;5.35;;;15.90;99.90;;;;;;5062176;28;20047;-72
2023/08/30 08:29:30;;;;;;;7.97;3.90;;;15.90;99.90;;;;;;5060833;28;20052;-73
2023/08/30 08:31:55;;;;;;;7.00;4.00;;;15.90;99.90;;;;;;5063153;28;20040;-72
2023/08/30 08:34:21;;;;;;;10.05;5.32;;;15.80;99.90;;;;;;5062060;28;20090;-72
2023/08/30 08:36:47;;;;;;;6.43;3.90;;;15.80;99.90;;;;;;5057816;28;20399;-72
2023/08/30 08:39:14;;;;;;;8.30;4.13;;;15.70;99.90;;;;;;5054110;28;20157;-72
2023/08/30 08:41:44;;;;;;;7.72;3.63;;;15.70;99.90;;;;;;5059777;28;20078;-73
2023/08/30 08:44:11;;;;;;;6.78;3.78;;;15.70;99.90;;;;;;5060803;28;20040;-73
2023/08/30 08:46:38;;;;;;;7.97;3.65;;;15.60;99.90;;;;;;5057996;28;20415;-71
2023/08/30 08:49:17;;;;;;;7.82;2.80;;;15.60;99.90;;;;;;5052479;28;20037;-72
2023/08/30 08:51:43;;;;;;;5.85;2.88;;;15.50;99.90;;;;;;5050407;28;20071;-72
2023/08/30 08:54:10;;;;;;;5.35;3.00;;;15.50;99.90;;;;;;5062973;28;20251;-73
2023/08/30 08:56:37;;;;;;;6.75;4.22;;;15.50;99.90;;;;;;5054568;28;20052;-72
2023/08/30 08:59:03;;;;;;;7.38;3.45;;;15.40;99.90;;;;;;5056469;28;20561;-72
2023/08/30 09:01:29;;;;;;;6.32;3.30;;;15.40;99.90;;;;;;5046298;28;20048;-72
2023/08/30 09:03:55;;;;;;;7.22;3.92;;;15.40;99.90;;;;;;5054347;28;20391;-72
2023/08/30 09:06:23;;;;;;;5.75;3.03;;;15.40;99.90;;;;;;5060712;28;20063;-72
2023/08/30 09:08:49;;;;;;;5.82;3.15;;;15.40;99.90;;;;;;5060717;28;20402;-72
2023/08/30 09:11:14;;;;;;;3.55;2.63;;;15.40;99.90;;;;;;5061867;28;20102;-72
2023/08/30 09:13:44;;;;;;;6.07;2.03;;;15.40;99.90;;;;;;5062926;28;20511;-72
2023/08/30 09:16:14;;;;;;;4.95;2.63;;;15.40;99.90;;;;;;5059047;28;20045;-72
2023/08/30 09:18:41;;;;;;;6.70;2.92;;;15.40;99.90;;;;;;5060107;28;20549;-72
2023/08/30 09:21:10;;;;;;;6.13;3.20;;;15.40;99.90;;;;;;5059343;28;20078;-71
2023/08/30 09:23:37;;;;;;;6.45;3.78;;;15.50;99.90;;;;;;5045356;28;20119;-73
2023/08/30 09:26:03;;;;;;;4.63;3.13;;;15.50;99.90;;;;;;5058933;28;20040;-72
2023/08/30 09:28:31;;;;;;;5.70;2.80;;;15.50;99.90;;;;;;5038804;28;20097;-72
2023/08/30 09:31:00;;;;;;;4.53;2.60;;;15.50;99.90;;;;;;5058980;28;20036;-73
2023/08/30 09:33:33;;;;;;;4.65;2.67;;;15.50;99.90;;;;;;5055471;28;20040;-73
2023/08/30 09:35:59;;;;;;;3.70;2.58;;;15.50;99.90;;;;;;5059114;28;20555;-73
2023/08/30 09:38:25;;;;;;;4.00;3.15;;;15.50;99.90;;;;;;5058772;28;20040;-72
2023/08/30 09:40:51;;;;;;;4.07;2.83;;;15.50;99.90;;;;;;5061445;28;20525;-73
2023/08/30 09:43:23;;;;;;;6.57;3.55;;;15.50;99.90;;;;;;5037011;28;20040;-73
2023/08/30 09:45:50;;;;;;;4.53;3.15;;;15.50;99.90;;;;;;5051815;28;20130;-73
2023/08/30 09:48:22;;;;;;;4.35;3.05;;;15.50;99.90;;;;;;5055454;28;20060;-73
2023/08/30 09:50:54;;;;;;;5.72;3.10;;;15.50;99.90;;;;;;5039925;28;20032;-72
2023/08/30 09:53:25;;;;;;;5.50;3.38;;;15.50;99.90;;;;;;5054445;28;20558;-72
2023/08/30 09:55:52;;;;;;;4.30;2.95;;;15.50;99.90;;;;;;5065014;28;20070;-72
2023/08/30 09:58:21;;;;;;;4.95;3.50;;;15.50;99.90;;;;;;5065310;28;20040;-72
2023/08/30 10:00:47;;;;;;;4.30;2.72;;;15.50;99.90;;;;;;5064239;28;20182;-72
2023/08/30 10:03:13;;;;;;;5.65;3.63;;;15.60;99.90;;;;;;5063085;28;20072;-72
2023/08/30 10:05:40;;;;;;;6.55;3.38;;;15.60;99.90;;;;;;5045287;28;20102;-73
2023/08/30 10:08:08;;;;;;;7.10;4.57;;;15.60;99.90;;;;;;5038501;28;20062;-72
2023/08/30 10:10:35;;;;;;;7.28;2.90;;;15.70;99.90;;;;;;5065247;28;20048;-71
2023/08/30 10:13:02;;;;;;;6.97;3.00;;;15.60;99.90;;;;;;5054014;28;20040;-71
2023/08/30 10:15:33;;;;;;;4.15;2.95;;;15.60;99.90;;;;;;5051629;28;20498;-71
2023/08/30 10:18:02;;;;;;;4.28;2.90;;;15.60;99.90;;;;;;5058493;28;20114;-73
2023/08/30 10:20:28;;;;;;;6.20;3.38;;;15.60;99.90;;;;;;5055209;28;20141;-72
2023/08/30 10:22:56;;;;;;;6.18;3.30;;;15.50;99.90;;;;;;5059650;28;20525;-72
2023/08/30 10:25:27;;;;;;;6.18;3.97;;;15.50;99.90;;;;;;5054265;28;20047;-73
2023/08/30 10:27:55;;;;;;;6.07;3.63;;;15.50;99.90;;;;;;5041708;28;20045;-72
2023/08/30 10:30:22;;;;;;;6.75;3.20;;;15.40;99.90;;;;;;5062416;28;20057;-72
2023/08/30 10:32:48;;;;;;;9.05;4.10;;;15.40;99.90;;;;;;5059835;28;20098;-72
2023/08/30 10:35:19;;;;;;;7.30;3.65;;;15.40;99.90;;;;;;5051360;28;20049;-72
2023/08/30 10:37:55;;;;;;;7.10;3.35;;;15.40;99.90;;;;;;5062155;28;20037;-72
2023/08/30 10:40:22;;;;;;;8.10;4.03;;;15.40;99.90;;;;;;5071985;28;20041;-71
2023/08/30 10:42:58;;;;;;;8.23;3.63;;;15.40;99.90;;;;;;5053633;28;20041;-72
2023/08/30 10:45:24;;;;;;;6.40;3.13;;;15.40;99.90;;;;;;5061021;28;20440;-72
2023/08/30 10:47:55;;;;;;;6.65;3.95;;;15.40;99.90;;;;;;5063327;28;20104;-72
2023/08/30 10:50:31;;;;;;;5.85;3.47;;;15.50;99.90;;;;;;5051927;28;20117;-73
2023/08/30 10:52:56;;;;;;;10.25;4.22;;;15.50;99.90;;;;;;5039082;28;20033;-72
2023/08/30 10:55:23;;;;;;;6.32;3.92;;;15.50;99.90;;;;;;5062755;28;20067;-73
2023/08/30 10:57:59;;;;;;;7.97;4.13;;;15.50;99.90;;;;;;5063029;28;20047;-72
2023/08/30 11:00:27;;;;;;;6.70;3.85;;;15.50;99.90;;;;;;5062706;28;20442;-73
2023/08/30 11:02:53;;;;;;;6.90;3.88;;;15.50;99.90;;;;;;5063085;28;20040;-73
2023/08/30 11:05:22;;;;;;;8.20;4.75;;;15.50;99.90;;;;;;5062584;28;20131;-72
2023/08/30 11:07:49;;;;;;;9.27;3.92;;;15.50;99.90;;;;;;5062058;28;20044;-72
2023/08/30 11:10:15;;;;;;;6.45;3.90;;;15.50;99.90;;;;;;5063947;28;20040;-73
2023/08/30 11:12:41;;;;;;;8.52;4.60;;;15.50;99.90;;;;;;5064470;28;20580;-73
2023/08/30 11:15:09;;;;;;;9.13;5.20;;;15.50;99.90;;;;;;5061764;28;20534;-73
2023/08/30 11:17:35;;;;;;;8.07;4.95;;;15.50;99.90;;;;;;5044243;28;20050;-72
2023/08/30 11:20:12;;;;;;;7.18;3.78;;;15.50;99.90;;;;;;5049496;28;20308;-72
2023/08/30 11:22:44;;;;;;;9.25;5.50;;;15.60;99.90;;;;;;5062202;28;20045;-74
2023/08/30 11:25:10;;;;;;;;;;;15.60;99.90;;;;;;5053477;28;20423;-72
2023/08/30 11:27:38;;;;;;;7.97;4.75;;;15.60;99.90;;;;;;5062053;28;19921;-72
2023/08/30 11:30:05;;;;;;;7.95;4.47;;;15.60;99.90;;;;;;5061759;28;20052;-73
2023/08/30 11:32:38;;;;;;;6.95;4.40;;;15.50;99.90;;;;;;5063773;28;20046;-73
2023/08/30 11:35:05;;;;;;;8.35;5.35;;;15.50;99.90;;;;;;5062717;28;20410;-73
2023/08/30 11:37:31;;;;;;;6.53;4.20;;;15.50;99.90;;;;;;5060055;28;20054;-72
2023/08/30 11:39:59;;;;;;;8.82;4.05;;;15.50;99.90;;;;;;5063097;28;20051;-72
2023/08/30 11:42:25;;;;;;;11.50;4.63;;;15.50;99.90;;;;;;5063273;28;20172;-73
2023/08/30 11:44:51;;;;;;;7.57;4.55;;;15.50;99.90;;;;;;5040474;28;20505;-73
2023/08/30 11:47:25;;;;;;;10.27;5.25;;;15.50;99.90;;;;;;5055308;28;20055;-74
2023/08/30 11:49:53;;;;;;;7.60;4.75;;;15.50;99.90;;;;;;5058715;28;20091;-73
2023/08/30 11:52:20;;;;;;;9.27;5.07;;;15.40;99.90;;;;;;5054612;28;20454;-73
2023/08/30 11:54:47;;;;;;;8.02;4.95;;;15.40;99.90;;;;;;5058242;28;20032;-72
2023/08/30 11:57:13;;;;;;;6.93;4.53;;;15.40;99.90;;;;;;5058948;28;20097;-73
2023/08/30 11:59:39;;;;;;;6.53;4.32;;;15.40;99.90;;;;;;5055873;28;20120;-74
2023/08/30 12:02:06;;;;;;;5.28;3.80;;;15.40;99.90;;;;;;5047876;28;20048;-73
2023/08/30 12:04:32;;;;;;;7.38;3.55;;;15.40;99.90;;;;;;5045098;28;20045;-73
2023/08/30 12:06:59;;;;;;;5.75;4.20;;;15.40;99.90;;;;;;5034178;28;20067;-71
2023/08/30 12:09:30;;;;;;;5.45;3.45;;;15.40;99.90;;;;;;5052575;28;20056;-71
2023/08/30 12:12:05;;;;;;;4.72;3.38;;;15.30;99.90;;;;;;5056457;28;20446;-72
2023/08/30 12:14:35;;;;;;;7.57;3.38;;;15.30;99.90;;;;;;5054175;28;20049;-72
2023/08/30 12:17:00;;;;;;;4.85;3.30;;;15.40;99.90;;;;;;5057401;28;20032;-72
2023/08/30 12:19:28;;;;;;;4.50;3.20;;;15.40;99.90;;;;;;5056884;28;20048;-72
2023/08/30 12:21:53;;;;;;;7.00;3.75;;;15.40;99.90;;;;;;5053649;28;20505;-71
2023/08/30 12:24:19;;;;;;;7.38;3.65;;;15.50;99.90;;;;;;5060430;28;20080;-72
2023/08/30 12:26:45;;;;;;;4.50;3.17;;;15.40;99.90;;;;;;5055054;28;20041;-71
2023/08/30 12:29:10;;;;;;;8.30;4.00;;;15.50;99.90;;;;;;5052522;28;20045;-71
2023/08/30 12:31:37;;;;;;;5.80;3.75;;;15.50;99.90;;;;;;5051133;28;20404;-71
2023/08/30 12:34:03;;;;;;;8.40;4.47;;;15.60;99.90;;;;;;5052630;28;20040;-72
2023/08/30 12:36:29;;;;;;;7.15;3.67;;;15.60;99.90;;;;;;5053983;28;20395;-72
2023/08/30 12:38:54;;;;;;;7.68;4.43;;;15.60;99.90;;;;;;5060631;28;20037;-71
2023/08/30 12:41:22;;;;;;;8.88;4.05;;;15.60;99.90;;;;;;5059821;28;20590;-71
2023/08/30 12:43:49;;;;;;;7.10;3.75;;;15.60;99.90;;;;;;5066384;28;20043;-71